createdAt,value
2019-06-10T00:00:16.097Z,1.73
2019-06-10T00:02:45.917Z,1.70
2019-06-10T00:05:17.640Z,1.80
2019-06-10T00:07:51.482Z,2.07
2019-06-10T00:10:23.109Z,1.80
2019-06-10T00:12:55.497Z,2.33
2019-06-10T00:15:27.689Z,1.57
2019-06-10T00:18:23.104Z,1.50
2019-06-10T00:20:33.149Z,2.37
2019-06-10T00:23:05.652Z,2.00
2019-06-10T00:25:40.576Z,1.60
2019-06-10T00:28:12.342Z,3.17
2019-06-10T00:30:44.699Z,2.73
2019-06-10T00:33:16.485Z,4.00
2019-06-10T00:35:48.304Z,2.30
2019-06-10T00:38:21.402Z,2.73
2019-06-10T00:40:53.607Z,2.20
2019-06-10T00:43:25.580Z,2.40
2019-06-10T00:45:57.288Z,2.30
2019-06-10T00:48:30.112Z,6.10
2019-06-10T00:51:04.087Z,2.40
2019-06-10T00:53:35.802Z,2.90
2019-06-10T00:56:08.831Z,2.30
2019-06-10T00:58:40.937Z,2.10
2019-06-10T01:01:14.557Z,1.83
2019-06-10T01:03:46.189Z,2.13
2019-06-10T01:06:17.949Z,2.10
2019-06-10T01:08:51.245Z,1.33
2019-06-10T01:11:26.998Z,1.83
2019-06-10T01:13:56.777Z,1.87
2019-06-10T01:16:28.917Z,1.63
2019-06-10T01:19:03.953Z,1.40
2019-06-10T01:21:36.579Z,1.63
2019-06-10T01:24:11.595Z,1.93
2019-06-10T01:26:42.105Z,1.50
2019-06-10T01:29:15.451Z,1.53
2019-06-10T01:31:47.224Z,1.70
2019-06-10T01:34:18.985Z,1.70
2019-06-10T01:36:50.955Z,2.00
2019-06-10T01:39:23.015Z,1.47
2019-06-10T01:41:54.725Z,1.80
2019-06-10T01:44:26.470Z,1.73
2019-06-10T01:46:58.185Z,1.43
2019-06-10T01:49:30.765Z,1.70
2019-06-10T01:52:03.011Z,1.97
2019-06-10T01:54:34.757Z,1.57
2019-06-10T01:57:07.733Z,1.53
2019-06-10T01:59:41.416Z,1.80
2019-06-10T02:02:23.781Z,1.60
2019-06-10T02:04:55.701Z,1.67
2019-06-10T02:07:27.469Z,2.20
2019-06-10T02:10:01.130Z,1.57
2019-06-10T02:12:32.815Z,1.80
2019-06-10T02:15:05.101Z,1.50
2019-06-10T02:17:36.945Z,1.60
2019-06-10T02:20:12.946Z,1.63
2019-06-10T02:22:43.581Z,1.83
2019-06-10T02:25:16.691Z,2.07
2019-06-10T02:27:50.737Z,1.80
2019-06-10T02:30:35.756Z,1.80
2019-06-10T02:32:55.694Z,1.57
2019-06-10T02:35:43.020Z,1.83
2019-06-10T02:38:03.473Z,1.80
2019-06-10T02:40:36.548Z,1.90
2019-06-10T02:43:09.203Z,1.90
2019-06-10T02:45:44.212Z,1.50
2019-06-10T02:48:17.716Z,1.70
2019-06-10T02:51:08.235Z,1.73
2019-06-10T02:53:43.068Z,1.67
2019-06-10T02:56:14.901Z,1.70
2019-06-10T02:58:46.841Z,1.70
2019-06-10T03:01:19.952Z,2.10
2019-06-10T03:03:54.281Z,1.87
2019-06-10T03:06:34.851Z,2.07
2019-06-10T03:08:58.877Z,2.50
2019-06-10T03:11:36.475Z,2.30
2019-06-10T03:14:04.045Z,2.60
2019-06-10T03:16:46.299Z,5.00
2019-06-10T03:19:37.014Z,4.13
2019-06-10T03:22:04.701Z,2.97
2019-06-10T03:24:36.518Z,2.20
2019-06-10T03:27:08.191Z,3.40
2019-06-10T03:29:42.041Z,5.20
2019-06-10T03:32:15.250Z,4.77
2019-06-10T03:34:47.807Z,4.30
2019-06-10T03:37:20.960Z,5.87
2019-06-10T03:39:53.700Z,6.23
2019-06-10T03:42:26.889Z,3.20
2019-06-10T03:44:58.881Z,3.80
2019-06-10T03:47:32.471Z,3.13
2019-06-10T03:50:04.093Z,4.67
2019-06-10T03:52:35.893Z,3.10
2019-06-10T03:55:08.516Z,2.67
2019-06-10T03:57:42.277Z,2.83
2019-06-10T04:00:14.290Z,2.50
2019-06-10T04:02:46.313Z,2.27
2019-06-10T04:05:19.344Z,2.00
2019-06-10T04:07:52.692Z,2.03
2019-06-10T04:10:27.731Z,2.50
2019-06-10T04:12:57.873Z,2.37
2019-06-10T04:15:30.337Z,2.87
2019-06-10T04:18:03.874Z,2.27
2019-06-10T04:20:36.395Z,2.17
2019-06-10T04:23:08.151Z,2.10
2019-06-10T04:25:42.890Z,2.27
2019-06-10T04:28:14.649Z,2.53
2019-06-10T04:30:46.361Z,2.07
2019-06-10T04:33:18.384Z,2.40
2019-06-10T04:35:52.012Z,1.97
2019-06-10T04:38:26.031Z,2.00
2019-06-10T04:40:57.659Z,2.33
2019-06-10T04:43:29.457Z,2.83
2019-06-10T04:46:02.364Z,2.33
2019-06-10T04:48:34.903Z,2.37
2019-06-10T04:51:06.679Z,2.33
2019-06-10T04:53:40.303Z,2.97
2019-06-10T04:56:12.370Z,2.17
2019-06-10T04:58:44.587Z,2.40
2019-06-10T05:01:16.335Z,2.70
2019-06-10T05:03:48.181Z,2.20
2019-06-10T05:06:21.059Z,2.03
2019-06-10T05:08:53.778Z,2.70
2019-06-10T05:11:27.007Z,2.10
2019-06-10T05:13:59.187Z,2.10
2019-06-10T05:16:34.933Z,2.87
2019-06-10T05:19:04.283Z,2.33
2019-06-10T05:21:36.059Z,2.60
2019-06-10T05:24:07.826Z,2.50
2019-06-10T05:26:42.029Z,2.93
2019-06-10T05:29:12.969Z,2.27
2019-06-10T05:31:44.789Z,3.20
2019-06-10T05:34:16.539Z,2.60
2019-06-10T05:36:48.959Z,2.67
2019-06-10T05:39:21.497Z,2.67
2019-06-10T05:41:54.139Z,2.37
2019-06-10T05:44:28.446Z,2.63
2019-06-10T05:47:03.415Z,2.67
2019-06-10T05:49:36.126Z,2.97
2019-06-10T05:52:08.645Z,2.77
2019-06-10T05:54:42.718Z,2.63
2019-06-10T05:57:13.860Z,3.00
2019-06-10T05:59:45.644Z,3.53
2019-06-10T06:02:17.492Z,2.70
2019-06-10T06:04:49.253Z,2.73
2019-06-10T06:07:22.269Z,3.00
2019-06-10T06:09:54.096Z,3.07
2019-06-10T06:12:25.817Z,2.90
2019-06-10T06:14:57.500Z,3.70
2019-06-10T06:17:29.871Z,3.63
2019-06-10T06:20:02.746Z,3.13
2019-06-10T06:22:35.697Z,3.00
2019-06-10T06:25:08.655Z,3.13
2019-06-10T06:27:42.103Z,3.97
2019-06-10T06:30:18.710Z,4.33
2019-06-10T06:32:49.357Z,3.70
2019-06-10T06:35:22.727Z,3.63
2019-06-10T06:37:55.797Z,3.57
2019-06-10T06:40:27.531Z,3.80
2019-06-10T06:42:59.253Z,4.27
2019-06-10T06:45:34.371Z,4.10
2019-06-10T06:48:04.475Z,5.40
2019-06-10T06:50:46.254Z,4.15
2019-06-10T06:53:23.381Z,4.67
2019-06-10T06:55:44.359Z,4.40
2019-06-10T06:58:16.725Z,5.22
2019-06-10T07:01:01.408Z,4.50
2019-06-10T07:03:23.099Z,4.97
2019-06-10T07:05:56.165Z,4.25
2019-06-10T07:08:30.840Z,4.45
2019-06-10T07:11:04.996Z,4.58
2019-06-10T07:13:40.417Z,4.60
2019-06-10T07:16:13.131Z,4.42
2019-06-10T07:18:50.231Z,5.70
2019-06-10T07:21:22.567Z,4.50
2019-06-10T07:23:53.868Z,4.30
2019-06-10T07:26:26.226Z,5.00
2019-06-10T07:28:58.602Z,4.90
2019-06-10T07:31:33.580Z,5.15
2019-06-10T07:34:04.966Z,4.45
2019-06-10T07:36:37.307Z,4.80
2019-06-10T07:39:09.582Z,4.53
2019-06-10T07:41:45.165Z,5.17
2019-06-10T07:44:15.894Z,6.08
2019-06-10T07:46:48.238Z,5.15
2019-06-10T07:49:20.565Z,5.10
2019-06-10T07:51:52.896Z,5.47
2019-06-10T07:54:25.196Z,5.75
2019-06-10T07:56:57.516Z,6.00
2019-06-10T07:59:32.149Z,5.42
2019-06-10T08:02:03.834Z,6.30
2019-06-10T08:04:36.479Z,5.85
2019-06-10T08:07:12.389Z,5.60
2019-06-10T08:09:45.748Z,5.33
2019-06-10T08:12:18.420Z,6.20
2019-06-10T08:14:53.286Z,5.53
2019-06-10T08:17:24.724Z,5.78
2019-06-10T08:19:57.147Z,6.12
2019-06-10T08:22:33.167Z,5.58
2019-06-10T08:25:04.775Z,6.00
2019-06-10T08:27:38.549Z,5.53
2019-06-10T08:30:22.152Z,6.22
2019-06-10T08:32:53.051Z,5.95
2019-06-10T08:35:37.708Z,6.20
2019-06-10T08:37:54.968Z,5.53
2019-06-10T08:40:27.593Z,6.12
2019-06-10T08:42:59.922Z,5.72
2019-06-10T08:45:33.320Z,5.92
2019-06-10T08:48:06.653Z,6.42
2019-06-10T08:50:39.363Z,6.30
2019-06-10T08:53:15.515Z,6.97
2019-06-10T08:55:47.592Z,6.15
2019-06-10T08:58:19.618Z,6.10
2019-06-10T09:00:53.551Z,6.53
2019-06-10T09:03:25.816Z,5.55
2019-06-10T09:05:58.649Z,5.95
2019-06-10T09:08:32.599Z,6.55
2019-06-10T09:11:05.137Z,5.75
2019-06-10T09:13:38.120Z,6.03
2019-06-10T09:16:18.573Z,6.12
2019-06-10T09:18:48.019Z,6.05
2019-06-10T09:21:19.460Z,7.15
2019-06-10T09:23:59.375Z,6.40
2019-06-10T09:26:25.702Z,6.17
2019-06-10T09:28:57.983Z,7.75
2019-06-10T09:31:30.319Z,7.50
2019-06-10T09:34:03.981Z,7.30
2019-06-10T09:36:36.781Z,6.78
2019-06-10T09:39:09.272Z,7.45
2019-06-10T09:41:50.331Z,8.25
2019-06-10T09:44:15.680Z,8.05
2019-06-10T09:46:55.986Z,7.33
2019-06-10T09:49:27.597Z,7.80
2019-06-10T09:52:03.479Z,9.33
2019-06-10T09:54:35.474Z,7.15
2019-06-10T09:57:07.826Z,8.38
2019-06-10T09:59:41.722Z,7.35
2019-06-10T10:02:14.072Z,7.70
2019-06-10T10:04:49.468Z,8.30
2019-06-10T10:07:22.624Z,8.18
2019-06-10T10:10:05.060Z,8.10
2019-06-10T10:12:36.167Z,8.58
2019-06-10T10:15:26.430Z,7.83
2019-06-10T10:17:47.654Z,7.78
2019-06-10T10:20:18.407Z,7.83
2019-06-10T10:22:54.209Z,7.58
2019-06-10T10:25:32.654Z,8.35
2019-06-10T10:28:03.988Z,8.88
2019-06-10T10:30:57.602Z,8.20
2019-06-10T10:33:30.273Z,8.03
2019-06-10T10:36:02.974Z,7.87
2019-06-10T10:38:42.641Z,8.20
2019-06-10T10:41:15.202Z,8.05
2019-06-10T10:43:51.183Z,7.28
2019-06-10T10:46:23.102Z,8.15
2019-06-10T10:48:56.640Z,7.78
2019-06-10T10:51:29.412Z,8.33
2019-06-10T10:54:21.154Z,8.60
2019-06-10T10:56:35.759Z,7.83
2019-06-10T10:59:08.182Z,8.58
2019-06-10T11:01:43.740Z,8.23
2019-06-10T11:04:14.699Z,9.28
2019-06-10T11:06:47.812Z,8.58
2019-06-10T11:09:26.201Z,7.83
2019-06-10T11:12:02.711Z,8.78
2019-06-10T11:14:35.327Z,8.43
2019-06-10T11:17:08.094Z,8.53
2019-06-10T11:19:40.669Z,7.87
2019-06-10T11:22:13.015Z,8.28
2019-06-10T11:24:47.627Z,8.05
2019-06-10T11:27:19.387Z,8.23
2019-06-10T11:29:53.612Z,8.18
2019-06-10T11:32:27.140Z,8.53
2019-06-10T11:34:59.570Z,8.33
2019-06-10T11:37:33.068Z,7.95
2019-06-10T11:40:06.831Z,9.83
2019-06-10T11:42:43.340Z,8.88
2019-06-10T11:45:15.334Z,9.93
2019-06-10T11:47:49.321Z,9.40
2019-06-10T11:50:23.230Z,10.60
2019-06-10T11:53:00.254Z,9.20
2019-06-10T11:55:29.759Z,8.85
2019-06-10T11:58:02.191Z,9.03
2019-06-10T12:00:35.337Z,8.55
2019-06-10T12:03:07.772Z,8.85
2019-06-10T12:05:40.112Z,9.13
2019-06-10T12:08:16.033Z,8.23
2019-06-10T12:10:49.049Z,8.93
2019-06-10T12:13:22.615Z,9.25
2019-06-10T12:16:42.365Z,9.40
2019-06-10T12:18:29.331Z,10.80
2019-06-10T12:21:03.867Z,9.38
2019-06-10T12:23:37.893Z,9.00
2019-06-10T12:26:10.182Z,8.80
2019-06-10T12:28:43.218Z,8.48
2019-06-10T12:31:17.983Z,8.63
2019-06-10T12:33:51.135Z,8.18
2019-06-10T12:36:24.474Z,8.25
2019-06-10T12:39:02.339Z,7.83
2019-06-10T12:41:33.186Z,9.05
2019-06-10T12:44:07.473Z,8.60
2019-06-10T12:46:39.819Z,9.13
2019-06-10T12:49:13.108Z,8.95
2019-06-10T12:51:46.157Z,8.58
2019-06-10T12:54:18.597Z,8.20
2019-06-10T12:56:52.812Z,8.25
2019-06-10T12:59:24.957Z,7.90
2019-06-10T13:01:58.094Z,7.60
2019-06-10T13:04:31.433Z,7.70
2019-06-10T13:07:07.076Z,7.67
2019-06-10T13:09:40.002Z,8.48
2019-06-10T13:12:13.100Z,8.93
2019-06-10T13:14:45.863Z,8.28
2019-06-10T13:17:18.258Z,9.73
2019-06-10T13:19:50.708Z,10.23
2019-06-10T13:22:23.151Z,8.80
2019-06-10T13:24:56.484Z,8.98
2019-06-10T13:27:29.311Z,8.35
2019-06-10T13:30:02.687Z,8.55
2019-06-10T13:32:36.719Z,8.08
2019-06-10T13:35:09.144Z,8.20
2019-06-10T13:37:42.864Z,8.13
2019-06-10T13:40:16.337Z,8.13
2019-06-10T13:42:48.629Z,8.40
2019-06-10T13:45:22.383Z,7.90
2019-06-10T13:47:55.185Z,7.97
2019-06-10T13:50:27.553Z,8.23
2019-06-10T13:53:01.124Z,8.00
2019-06-10T13:55:33.785Z,8.15
2019-06-10T13:58:08.373Z,12.53
2019-06-10T14:00:45.971Z,8.65
2019-06-10T14:03:16.322Z,8.50
2019-06-10T14:05:48.989Z,7.12
2019-06-10T14:08:23.324Z,7.53
2019-06-10T14:10:55.224Z,7.00
2019-06-10T14:13:28.632Z,7.78
2019-06-10T14:16:01.377Z,7.15
2019-06-10T14:18:36.620Z,7.15
2019-06-10T14:21:12.624Z,8.23
2019-06-10T14:23:42.945Z,8.68
2019-06-10T14:26:17.158Z,8.25
2019-06-10T14:28:52.436Z,7.37
2019-06-10T14:31:39.419Z,8.00
2019-06-10T14:34:00.035Z,7.60
2019-06-10T14:36:32.552Z,8.33
2019-06-10T14:39:08.548Z,7.23
2019-06-10T14:41:42.887Z,7.50
2019-06-10T14:44:18.078Z,6.80
2019-06-10T14:46:52.908Z,6.77
2019-06-10T14:49:24.534Z,7.13
2019-06-10T14:51:56.708Z,7.40
2019-06-10T14:54:28.688Z,7.20
2019-06-10T14:57:02.703Z,8.90
2019-06-10T14:59:34.790Z,7.50
2019-06-10T15:02:07.794Z,7.92
2019-06-10T15:04:42.438Z,8.38
2019-06-10T15:07:13.824Z,8.87
2019-06-10T15:09:45.946Z,8.00
2019-06-10T15:12:18.401Z,8.20
2019-06-10T15:14:52.107Z,8.03
2019-06-10T15:17:24.628Z,7.53
2019-06-10T15:19:56.946Z,7.95
2019-06-10T15:22:29.820Z,8.05
2019-06-10T15:25:25.460Z,7.90
2019-06-10T15:27:54.941Z,7.50
2019-06-10T15:30:30.595Z,8.73
2019-06-10T15:33:02.929Z,7.90
2019-06-10T15:35:34.672Z,7.93
2019-06-10T15:38:06.825Z,9.53
2019-06-10T15:40:38.867Z,7.90
2019-06-10T15:43:11.790Z,9.28
2019-06-10T15:45:44.356Z,8.58
2019-06-10T15:48:21.881Z,8.03
2019-06-10T15:50:52.643Z,7.93
2019-06-10T15:53:25.718Z,9.57
2019-06-10T15:56:24.998Z,8.53
2019-06-10T15:58:32.126Z,8.27
2019-06-10T16:01:04.644Z,7.70
2019-06-10T16:03:36.709Z,7.30
2019-06-10T16:06:08.789Z,7.57
2019-06-10T16:08:43.006Z,8.23
2019-06-10T16:11:18.046Z,8.63
2019-06-10T16:13:48.280Z,7.80
2019-06-10T16:16:21.063Z,8.07
2019-06-10T16:18:53.552Z,7.97
2019-06-10T16:21:25.642Z,8.37
2019-06-10T16:23:57.667Z,8.27
2019-06-10T16:26:29.727Z,7.77
2019-06-10T16:29:05.745Z,7.83
2019-06-10T16:31:38.185Z,8.30
2019-06-10T16:34:12.591Z,7.03
2019-06-10T16:36:44.000Z,8.60
2019-06-10T16:39:16.970Z,8.07
2019-06-10T16:41:49.256Z,9.00
2019-06-10T16:44:25.994Z,7.23
2019-06-10T16:46:55.107Z,7.50
2019-06-10T16:49:27.189Z,8.90
2019-06-10T16:52:02.813Z,7.93
2019-06-10T16:54:45.983Z,8.17
2019-06-10T16:57:18.026Z,7.67
2019-06-10T16:59:52.095Z,7.87
2019-06-10T17:02:25.459Z,8.50
2019-06-10T17:04:58.693Z,8.80
2019-06-10T17:07:32.907Z,8.00
2019-06-10T17:10:06.535Z,7.77
2019-06-10T17:12:38.680Z,9.27
2019-06-10T17:15:13.014Z,7.47
2019-06-10T17:17:45.527Z,9.87
2019-06-10T17:20:18.591Z,13.30
2019-06-10T17:22:52.445Z,9.77
2019-06-10T17:25:25.440Z,9.53
2019-06-10T17:27:58.343Z,8.57
2019-06-10T17:30:30.356Z,8.77
2019-06-10T17:33:02.449Z,14.50
2019-06-10T17:35:36.909Z,12.93
2019-06-10T17:38:09.490Z,9.33
2019-06-10T17:40:43.216Z,9.37
2019-06-10T17:43:15.304Z,8.67
2019-06-10T17:45:47.684Z,8.90
2019-06-10T17:48:22.298Z,8.40
2019-06-10T17:50:54.079Z,8.78
2019-06-10T17:53:38.270Z,10.00
2019-06-10T17:56:13.170Z,8.88
2019-06-10T17:58:54.252Z,9.23
2019-06-10T18:01:18.561Z,8.98
2019-06-10T18:03:52.919Z,10.38
2019-06-10T18:06:25.954Z,8.70
2019-06-10T18:08:59.030Z,8.80
2019-06-10T18:11:34.179Z,9.83
2019-06-10T18:14:05.998Z,9.88
2019-06-10T18:16:38.377Z,9.90
2019-06-10T18:19:10.702Z,9.30
2019-06-10T18:21:43.116Z,9.48
2019-06-10T18:24:15.517Z,9.33
2019-06-10T18:26:49.210Z,10.25
2019-06-10T18:29:22.970Z,9.93
2019-06-10T18:31:55.676Z,11.10
2019-06-10T18:34:28.078Z,10.90
2019-06-10T18:37:02.621Z,10.15
2019-06-10T18:39:35.652Z,10.03
2019-06-10T18:42:09.541Z,8.98
2019-06-10T18:44:41.982Z,10.45
2019-06-10T18:47:14.410Z,9.48
2019-06-10T18:49:46.850Z,10.85
2019-06-10T18:52:23.431Z,9.65
2019-06-10T18:54:57.600Z,9.80
2019-06-10T18:57:30.637Z,10.75
2019-06-10T19:00:11.154Z,10.93
2019-06-10T19:02:39.274Z,18.57
2019-06-10T19:05:13.070Z,11.05
2019-06-10T19:07:46.874Z,12.23
2019-06-10T19:10:23.065Z,12.37
2019-06-10T19:12:55.703Z,11.85
2019-06-10T19:15:29.332Z,12.05
2019-06-10T19:18:03.147Z,11.33
2019-06-10T19:20:38.705Z,9.60
2019-06-10T19:23:09.945Z,10.65
2019-06-10T19:25:44.414Z,12.98
2019-06-10T19:28:16.364Z,12.00
2019-06-10T19:30:53.289Z,11.85
2019-06-10T19:33:25.026Z,12.85
2019-06-10T19:35:57.380Z,9.90
2019-06-10T19:38:32.447Z,11.22
2019-06-10T19:41:18.718Z,11.38
2019-06-10T19:43:52.966Z,11.63
2019-06-10T19:46:25.214Z,10.35
2019-06-10T19:49:02.859Z,11.10
2019-06-10T19:51:32.872Z,10.53
2019-06-10T19:54:07.664Z,10.48
2019-06-10T19:56:41.883Z,13.35
2019-06-10T19:59:14.320Z,10.55
2019-06-10T20:01:48.836Z,10.38
2019-06-10T20:04:22.626Z,9.68
2019-06-10T20:06:57.142Z,11.65
2019-06-10T20:09:32.764Z,10.60
2019-06-10T20:12:05.430Z,10.25
2019-06-10T20:14:43.216Z,10.15
2019-06-10T20:17:15.964Z,9.98
2019-06-10T20:19:48.426Z,10.53
2019-06-10T20:22:22.777Z,10.70
2019-06-10T20:24:55.208Z,10.30
2019-06-10T20:27:27.601Z,11.50
2019-06-10T20:30:10.076Z,10.00
2019-06-10T20:32:37.060Z,9.68
2019-06-10T20:35:12.439Z,9.83
2019-06-10T20:37:47.235Z,10.03
2019-06-10T20:40:20.167Z,10.13
2019-06-10T20:42:53.971Z,10.48
2019-06-10T20:45:26.813Z,11.78
2019-06-10T20:47:59.306Z,10.75
2019-06-10T20:50:32.476Z,13.03
2019-06-10T20:53:14.343Z,12.82
2019-06-10T20:55:49.468Z,11.78
2019-06-10T20:58:22.544Z,12.03
2019-06-10T21:00:57.710Z,11.48
2019-06-10T21:03:32.367Z,11.38
2019-06-10T21:06:04.794Z,14.68
2019-06-10T21:08:37.412Z,11.45
2019-06-10T21:11:09.720Z,12.07
2019-06-10T21:13:48.685Z,12.35
2019-06-10T21:16:18.355Z,11.63
2019-06-10T21:18:55.146Z,12.75
2019-06-10T21:21:24.758Z,13.43
2019-06-10T21:23:57.185Z,12.33
2019-06-10T21:26:32.450Z,12.33
2019-06-10T21:29:05.222Z,12.10
2019-06-10T21:31:37.628Z,12.03
2019-06-10T21:34:12.196Z,11.78
2019-06-10T21:36:43.836Z,12.35
2019-06-10T21:39:27.718Z,11.57
2019-06-10T21:42:02.073Z,12.28
2019-06-10T21:44:34.115Z,11.43
2019-06-10T21:47:06.523Z,12.13
2019-06-10T21:49:38.829Z,11.63
2019-06-10T21:52:12.963Z,11.80
2019-06-10T21:54:47.189Z,11.93
2019-06-10T21:57:21.970Z,12.18
2019-06-10T21:59:55.286Z,12.73
2019-06-10T22:02:27.801Z,12.95
2019-06-10T22:05:03.321Z,12.75
2019-06-10T22:07:35.547Z,12.18
2019-06-10T22:10:08.244Z,11.60
2019-06-10T22:12:42.123Z,11.83
2019-06-10T22:15:15.239Z,12.80
2019-06-10T22:17:48.316Z,12.00
2019-06-10T22:20:22.739Z,12.25
2019-06-10T22:22:56.368Z,11.28
2019-06-10T22:25:29.238Z,12.00
2019-06-10T22:28:02.730Z,12.20
2019-06-10T22:30:35.633Z,12.00
2019-06-10T22:33:08.050Z,10.98
2019-06-10T22:35:42.539Z,9.75
2019-06-10T22:38:15.189Z,11.33
2019-06-10T22:40:50.949Z,11.55
2019-06-10T22:43:23.955Z,11.60
2019-06-10T22:45:57.305Z,10.88
2019-06-10T22:48:33.378Z,9.50
2019-06-10T22:51:06.007Z,11.33
2019-06-10T22:53:38.411Z,10.38
2019-06-10T22:56:12.355Z,11.50
2019-06-10T22:58:44.989Z,11.22
2019-06-10T23:01:30.887Z,10.40
2019-06-10T23:03:52.144Z,10.78
2019-06-10T23:06:24.914Z,10.95
2019-06-10T23:08:58.096Z,10.48
2019-06-10T23:11:32.335Z,10.65
2019-06-10T23:14:05.090Z,9.53
2019-06-10T23:16:37.442Z,11.43
2019-06-10T23:19:09.774Z,9.70
2019-06-10T23:21:42.535Z,10.45
2019-06-10T23:24:14.867Z,10.13
2019-06-10T23:26:47.210Z,9.93
2019-06-10T23:29:19.824Z,9.90
2019-06-10T23:32:00.751Z,10.00
2019-06-10T23:34:27.287Z,12.03
2019-06-10T23:37:01.673Z,11.00
2019-06-10T23:39:34.424Z,10.00
2019-06-10T23:42:06.864Z,10.85
2019-06-10T23:44:39.322Z,10.85
2019-06-10T23:47:12.750Z,10.63
2019-06-10T23:49:45.323Z,11.68
2019-06-10T23:52:17.665Z,10.70
2019-06-10T23:54:50.082Z,11.33
2019-06-10T23:57:22.436Z,11.03
2019-06-10T23:59:55.628Z,10.35
